Edgerton, Minnesota
Current Conditions -  °F | °C
As of 4:34 AM on Sunday 21 Dec 2014 (Local Time) from KPQN Reporting Station
Light Snow Light Snow  
Wind Chill: 24°   Ceiling: 100
Heat Index: 30°   Visibility: 0.25mi
Dew Point: 30°   Wind: 6mph
Humidity: 100%   Direction: 180°S
Pressure: 29.81"   Gusts: NA
Location:  43.87°N, 96.13°W
Report Text: KPQN 211034Z AUTO 18005KT 1/4SM -SN OVC001 M01/M01 A2981 RMK AO2
Loading
Personal Weather Stations






























Interactive Weather Map New forecast layout! Learn more

10-Day Weather Forecast

Advertisements
Track Severe Weather on mobile